Latest Weather Observations for Bellambi

IDN60801

Issued at 5:03 pm EST Sunday 31 July 2016 (issued every 30 minutes, with the page automatically refreshed every 10 minutes)

About weather observations | Map of weather stations | Latest weather observations for NSW | Other Formats
Station Details ID: 068228 Name: BELLAMBI AWS Lat: -34.37 Lon: 150.93 Height: 10.0 m
Data from the previous 72 hours. | See also: Recent months at Bellambi
Date/Time
EST
Temp
°C
App
Temp
°C
Dew
Point
°C
Rel
Hum
%
Delta-T
°C
Wind Press
QNH
hPa
Press
MSL
hPa
Rain since
9am
mm
Dir  Spd
km/h
Gust
km/h
Spd
kts
Gust
kts
31/05:00pm 16.6 14.7 9.1 61 3.9 NW 9 17 5 9 - - 0.0
31/04:30pm 17.5 15.8 9.9 61 4.0 E 9 15 5 8 - - 0.0
31/04:00pm 17.2 14.3 9.6 61 4.0 ENE 15 22 8 12 - - 0.0
31/03:30pm 17.6 15.3 9.0 57 4.5 ENE 11 13 6 7 - - 0.0
31/03:00pm 17.4 14.5 8.3 55 4.7 NE 13 15 7 8 - - 0.0
31/02:30pm 16.4 13.9 8.4 59 4.1 ENE 11 13 6 7 - - 0.0
31/02:00pm 17.6 15.4 9.5 59 4.2 E 11 15 6 8 - - 0.0
31/01:30pm 16.8 14.2 7.7 55 4.6 NE 11 17 6 9 - - 0.0
31/01:00pm 16.4 14.5 6.8 53 4.7 NNE 6 9 3 5 - - 0.0
31/12:30pm 16.8 14.8 6.3 50 5.1 E 6 9 3 5 - - 0.0
31/12:00pm 17.4 15.2 7.7 53 4.9 NE 9 11 5 6 - - 0.0
31/11:30am 16.0 13.6 7.0 55 4.4 NW 9 13 5 7 - - 0.0
31/11:00am 14.9 12.3 6.0 55 4.3 NNW 9 15 5 8 - - 0.0
31/10:30am 14.6 11.5 5.4 54 4.3 SW 11 17 6 9 - - 0.0
31/10:00am 14.9 9.9 4.6 50 4.8 WNW 20 32 11 17 - - 0.0
31/09:30am 14.2 11.7 5.0 54 4.3 W 7 15 4 8 - - 0.0
31/09:00am 14.2 9.6 5.6 56 4.1 NW 19 24 10 13 - - 0.0
31/08:30am 14.3 10.6 4.6 52 4.5 WNW 13 20 7 11 - - 0.0
31/08:00am 14.3 10.2 4.6 52 4.5 WSW 15 24 8 13 - - 0.0
31/07:30am 13.7 10.5 5.3 57 3.9 W 11 17 6 9 - - 0.0
31/07:00am 13.3 11.0 5.7 60 3.6 W 7 11 4 6 - - 0.0
31/06:30am 13.7 10.2 7.0 64 3.3 NW 15 19 8 10 - - 0.0
31/06:00am 13.8 9.7 6.2 60 3.6 WNW 17 20 9 11 - - 0.0
31/05:30am 14.1 10.3 6.0 58 3.9 W 15 24 8 13 - - 0.0
31/05:00am 14.5 11.4 7.3 62 3.5 W 13 22 7 12 - - 0.0
31/04:30am 14.5 11.6 6.6 59 3.8 NW 11 17 6 9 - - 0.0
31/04:00am 13.9 13.0 7.9 67 3.0 NW 2 7 1 4 - - 0.0
31/03:30am 14.3 12.6 7.6 64 3.3 NNW 6 19 3 10 - - 0.0
31/03:00am 14.6 11.6 7.9 64 3.3 NNE 13 39 7 21 - - 0.0
31/02:30am 13.9 8.8 9.1 73 2.4 NW 26 35 14 19 - - 0.0
31/02:00am 13.6 9.8 9.1 74 2.3 NW 19 24 10 13 - - 0.0
31/01:30am 14.6 10.7 9.4 71 2.7 NNW 20 30 11 16 - - 0.0
31/01:00am 14.3 11.1 9.9 75 2.3 NNW 17 22 9 12 - - 0.0
31/12:30am 14.2 9.7 10.0 76 2.2 NNW 24 30 13 16 - - 0.0
31/12:00am 14.3 9.5 10.3 77 2.1 NNW 26 33 14 18 - - 0.0
 
Date/Time
EST
Temp
°C
App
Temp
°C
Dew
Point
°C
Rel
Hum
%
Delta-T
°C
Wind Press
QNH
hPa
Press
MSL
hPa
Rain since
9am
mm
Dir  Spd
km/h
Gust
km/h
Spd
kts
Gust
kts
30/11:30pm 13.2 10.3 9.5 78 1.9 N 15 20 8 11 - - 0.0
30/11:00pm 12.4 9.1 8.1 75 2.1 NW 15 19 8 10 - - 0.0
30/10:30pm 12.4 9.0 7.7 73 2.3 WNW 15 19 8 10 - - 0.0
30/10:00pm 12.8 9.9 8.1 73 2.3 WNW 13 19 7 10 - - 0.0
30/09:30pm 13.9 10.9 9.1 73 2.4 NNW 15 19 8 10 - - 0.0
30/09:00pm 14.1 10.7 9.1 72 2.5 NNW 17 19 9 10 - - 0.0
30/08:30pm 13.9 10.8 8.9 72 2.5 NNW 15 19 8 10 - - 0.0
30/08:00pm 14.1 11.0 8.9 71 2.6 NNW 15 19 8 10 - - 0.0
30/07:30pm 14.1 11.2 8.3 68 2.9 NNW 13 15 7 8 - - 0.0
30/07:00pm 14.1 10.9 8.3 68 2.9 NNW 15 17 8 9 - - 0.0
30/06:30pm 12.8 10.1 7.3 69 2.7 NW 11 13 6 7 - - 0.0
30/06:00pm 12.9 10.2 7.4 69 2.7 NW 11 13 6 7 - - 0.0
30/05:30pm 13.6 11.3 7.6 67 2.9 NW 9 11 5 6 - - 0.0
30/05:00pm 15.0 12.7 7.5 61 3.7 N 9 13 5 7 - - 0.0
30/04:30pm 15.9 14.4 6.6 54 4.5 ENE 4 9 2 5 - - 0.0
30/04:00pm 16.0 13.4 5.9 51 4.9 ENE 9 13 5 7 - - 0.0
30/03:30pm 16.3 14.2 6.7 53 4.7 E 7 11 4 6 - - 0.0
30/03:00pm 16.1 13.9 6.3 52 4.8 ESE 7 15 4 8 - - 0.0
30/02:30pm 16.2 12.6 6.6 53 4.7 SE 15 17 8 9 - - 0.0
30/02:00pm 16.2 12.0 7.4 56 4.4 SSE 19 20 10 11 - - 0.0
30/01:30pm 16.2 11.7 6.3 52 4.8 SSE 19 24 10 13 - - 0.0
30/01:00pm 16.4 11.9 6.2 51 5.0 SSE 19 24 10 13 - - 0.0
30/12:30pm 16.4 11.9 6.8 53 4.7 S 20 26 11 14 - - 0.0
30/12:00pm 16.5 12.3 7.4 55 4.5 SSE 19 24 10 13 - - 0.0
30/11:30am 16.4 12.7 6.2 51 5.0 S 15 20 8 11 - - 0.0
30/11:00am 16.1 11.8 5.4 49 5.1 S 17 19 9 10 - - 0.0
30/10:30am 16.0 11.8 5.6 50 5.0 S 17 24 9 13 - - 0.0
30/10:00am 16.0 12.1 5.3 49 5.1 SSW 15 19 8 10 - - 0.0
30/09:30am 15.7 11.5 5.6 51 4.8 SW 17 22 9 12 - - 0.0
30/09:00am 15.2 11.7 5.4 52 4.7 SW 13 17 7 9 - - 0.0
30/08:30am 14.4 12.9 5.0 53 4.4 WSW 2 7 1 4 - - 0.0
30/08:00am 13.4 11.1 4.6 55 4.0 WSW 6 9 3 5 - - 0.0
30/07:30am 12.2 8.8 3.9 57 3.7 WSW 11 13 6 7 - - 0.0
30/07:00am 11.6 8.4 3.1 56 3.7 WSW 9 13 5 7 - - 0.0
30/06:30am 12.0 9.8 3.5 56 3.8 WNW 4 11 2 6 - - 0.0
30/06:00am 11.8 8.6 3.3 56 3.7 WSW 9 13 5 7 - - 0.0
30/05:30am 11.8 8.2 3.1 55 3.8 WSW 11 19 6 10 - - 0.0
30/05:00am 12.0 8.8 3.0 54 3.9 W 9 13 5 7 - - 0.0
30/04:30am 11.9 8.0 3.2 55 3.8 W 13 15 7 8 - - 0.0
30/04:00am 11.4 8.6 3.4 58 3.5 SW 7 11 4 6 - - 0.0
30/03:30am 11.9 9.1 3.4 56 3.8 W 7 13 4 7 - - 0.0
30/03:00am 11.6 9.3 4.8 63 3.1 WNW 6 9 3 5 - - 0.0
30/02:30am 11.2 8.7 4.9 65 2.9 NW 7 9 4 5 - - 0.0
30/02:00am 11.7 9.2 4.9 63 3.1 NW 7 11 4 6 - - 0.0
30/01:30am 12.1 10.0 3.9 57 3.7 WNW 4 9 2 5 - - 0.0
30/01:00am 12.3 8.4 3.3 54 4.0 WSW 13 17 7 9 - - 0.0
30/12:30am 12.3 8.3 3.0 53 4.1 W 13 19 7 10 - - 0.0
30/12:00am 12.1 7.7 2.8 53 4.1 W 15 22 8 12 - - 0.0
 
Date/Time
EST
Temp
°C
App
Temp
°C
Dew
Point
°C
Rel
Hum
%
Delta-T
°C
Wind Press
QNH
hPa
Press
MSL
hPa
Rain since
9am
mm
Dir  Spd
km/h
Gust
km/h
Spd
kts
Gust
kts
29/11:30pm 11.9 9.0 2.6 53 4.0 WNW 7 15 4 8 - - 0.0
29/11:00pm 11.9 7.2 3.2 55 3.8 WSW 17 24 9 13 - - 0.0
29/10:30pm 11.8 7.1 3.1 55 3.8 WSW 17 22 9 12 - - 0.0
29/10:00pm 11.4 8.6 3.2 57 3.6 W 7 11 4 6 - - 0.0
29/09:30pm 11.5 7.2 3.3 57 3.6 WSW 15 20 8 11 - - 0.0
29/09:00pm 11.3 7.8 3.3 58 3.5 WSW 11 22 6 12 - - 0.0
29/08:30pm 11.4 8.2 3.2 57 3.6 W 9 20 5 11 - - 0.0
29/08:00pm 11.8 8.7 3.6 57 3.6 WNW 9 19 5 10 - - 0.0
29/07:30pm 12.0 8.1 3.3 55 3.8 W 13 20 7 11 - - 0.0
29/07:00pm 12.3 7.7 3.5 55 3.9 WSW 17 24 9 13 - - 0.0
29/06:30pm 12.7 8.5 3.6 54 4.1 WSW 15 22 8 12 - - 0.0
29/06:00pm 13.0 8.0 3.7 53 4.2 WSW 19 32 10 17 - - 0.0
29/05:30pm 13.7 7.7 3.5 50 4.6 WSW 24 41 13 22 - - 0.0
29/05:00pm 14.3 9.0 2.9 46 5.1 W 20 39 11 21 - - 0.0
29/04:30pm 15.3 9.6 2.8 43 5.6 WSW 22 35 12 19 - - 0.0
29/04:00pm 15.8 9.7 2.6 41 5.9 WSW 24 41 13 22 - - 0.0
29/03:41pm 16.2 9.2 1.9 38 6.4 W 28 46 15 25 - - 0.0
29/03:30pm 16.5 10.7 2.2 38 6.4 W 22 35 12 19 - - 0.0
29/03:00pm 17.4 12.4 3.7 40 6.4 W 19 32 10 17 - - 0.0
29/02:30pm 17.8 12.1 2.9 37 6.9 W 22 35 12 19 - - 0.0
29/02:00pm 18.2 12.8 2.5 35 7.2 W 20 32 11 17 - - 0.0
29/01:30pm 18.7 15.4 4.5 39 6.8 NNW 11 28 6 15 - - 0.0
29/01:00pm 17.5 15.1 4.5 42 6.2 ENE 6 9 3 5 - - 0.0
29/12:30pm 16.9 14.0 4.9 45 5.7 ENE 9 11 5 6 - - 0.0
29/12:00pm 17.4 15.1 5.0 44 5.9 NNE 6 11 3 6 - - 0.0
29/11:30am 15.9 13.0 4.6 47 5.3 ENE 9 11 5 6 - - 0.0
29/11:00am 15.8 13.7 5.7 51 4.8 E 6 9 3 5 - - 0.0
29/10:30am 14.7 12.4 4.7 51 4.7 ESE 6 9 3 5 - - 0.0
29/10:00am 14.1 9.6 4.1 51 4.6 NW 17 24 9 13 - - 0.0
29/09:30am 13.9 11.7 5.3 56 4.0 W 6 17 3 9 - - 0.0
29/09:00am 12.8 9.0 4.0 55 4.0 NNW 13 19 7 10 - - 0.0
29/08:30am 11.4 9.1 2.9 56 3.7 WSW 4 11 2 6 - - 0.0
29/08:00am 10.2 7.5 2.6 59 3.2 W 6 9 3 5 - - 0.0
29/07:30am 9.2 6.0 2.8 64 2.7 NW 9 13 5 7 - - 0.0
29/07:00am 8.6 4.8 1.7 62 2.8 W 11 13 6 7 - - 0.0
29/06:30am 8.0 4.6 1.8 65 2.5 WNW 9 13 5 7 - - 0.0
29/06:00am 8.0 5.0 2.0 66 2.5 WNW 7 9 4 5 - - 0.0
29/05:30am 8.2 4.9 2.4 67 2.4 NW 9 11 5 6 - - 0.0
29/05:00am 8.4 4.7 2.4 66 2.5 NW 11 13 6 7 - - 0.0
29/04:30am 8.7 4.7 2.9 67 2.5 NW 13 17 7 9 - - 0.0
29/04:00am 8.6 5.3 2.4 65 2.6 WNW 9 11 5 6 - - 0.0
29/03:30am 9.2 5.6 3.2 66 2.6 NW 11 17 6 9 - - 0.0
29/03:00am 9.2 6.2 1.9 60 3.0 NW 7 11 4 6 - - 0.0
29/02:30am 9.7 7.8 2.8 62 2.9 W 2 7 1 4 - - 0.0
29/02:00am 9.4 7.3 1.8 59 3.2 W 2 9 1 5 - - 0.0
29/01:30am 9.4 6.0 1.6 58 3.2 W 9 13 5 7 - - 0.0
29/01:00am 9.8 8.1 1.9 58 3.3 CALM 0 0 0 0 - - 0.0
29/12:30am 10.6 8.7 2.7 58 3.4 NW 2 9 1 5 - - 0.0
29/12:00am 10.6 7.7 1.7 54 3.7 NW 6 11 3 6 - - 0.0
 
Date/Time
EST
Temp
°C
App
Temp
°C
Dew
Point
°C
Rel
Hum
%
Delta-T
°C
Wind Press
QNH
hPa
Press
MSL
hPa
Rain since
9am
mm
Dir  Spd
km/h
Gust
km/h
Spd
kts
Gust
kts
28/11:30pm 10.9 7.1 1.7 53 3.9 WSW 11 22 6 12 - - 0.0
28/11:00pm 11.4 8.0 1.9 52 4.0 W 9 17 5 9 - - 0.0
28/10:30pm 11.1 7.0 2.2 54 3.8 W 13 20 7 11 - - 0.0
28/10:00pm 11.2 6.7 2.2 54 3.8 W 15 24 8 13 - - 0.0
28/09:30pm 11.5 6.3 2.5 54 3.9 W 19 28 10 15 - - 0.0
28/09:00pm 11.4 6.6 2.7 55 3.8 W 17 28 9 15 - - 0.0
28/08:30pm 11.3 6.2 2.9 56 3.7 W 19 28 10 15 - - 0.0
28/08:00pm 11.6 6.9 2.9 55 3.8 W 17 30 9 16 - - 0.0
28/07:30pm 11.8 6.5 2.8 54 3.9 W 20 33 11 18 - - 0.0
28/07:00pm 12.1 6.8 3.1 54 4.0 WSW 20 32 11 17 - - 0.0
28/06:30pm 12.3 6.3 3.3 54 4.0 WSW 24 35 13 19 - - 0.0
28/06:00pm 12.8 8.2 3.5 53 4.2 W 17 30 9 16 - - 0.0
28/05:30pm 13.4 8.3 3.2 50 4.5 W 19 30 10 16 - - 0.0

Other Formats:

Comma delimited format used in spreadsheet applications
http://www.bom.gov.au/fwo/IDN60801/IDN60801.94749.axf

JavaScript Object Notation format (JSON) in row-major order
http://www.bom.gov.au/fwo/IDN60801/IDN60801.94749.json